Time;durP1;ratioP1;P1;durP2;ratioP2;P2;SDS_P1;SDS_P2;PMS_P1;PMS_P2;Temp;Humidity;BMP_temperature;BMP_pressure;BME280_temperature;BME280_humidity;BME280_pressure;Samples;Min_cycle;Max_cycle;Signal;HPM_P1;HPM_P2
2021/09/23 10:08:22;;;;;;;5.05;4.57;;;;;;;18.54;48.32;95129.56;5107215;27;20395;-82
2021/09/23 10:10:49;;;;;;;29.27;5.32;;;;;;;18.70;46.61;95124.56;5104554;28;20028;-84
2021/09/23 10:13:15;;;;;;;4.15;3.65;;;;;;;18.13;47.62;95128.25;5087826;28;20019;-77
2021/09/23 10:15:40;;;;;;;6.20;5.60;;;;;;;18.51;46.49;95127.38;5089213;28;20396;-85
2021/09/23 10:18:06;;;;;;;4.18;3.85;;;;;;;17.97;48.34;95131.38;5086522;28;20469;-81
2021/09/23 10:20:32;;;;;;;3.75;3.55;;;;;;;18.31;48.49;95143.22;5105231;28;20050;-83
2021/09/23 10:22:57;;;;;;;134.45;8.18;;;;;;;18.15;47.84;95118.34;5104022;28;20028;-83
2021/09/23 10:25:24;;;;;;;71.25;6.32;;;;;;;17.21;49.70;95130.53;5088094;28;20492;-84
2021/09/23 10:27:59;;;;;;;3.88;3.60;;;;;;;17.19;50.46;95132.53;5087626;28;20031;-85
2021/09/23 10:30:28;;;;;;;4.50;4.10;;;;;;;18.28;48.49;95141.84;5105148;28;20038;-86
2021/09/23 10:32:54;;;;;;;4.00;3.70;;;;;;;18.09;47.79;95113.16;5106848;28;20016;-84
2021/09/23 10:35:23;;;;;;;101.07;7.50;;;;;;;18.10;48.14;95128.69;5103053;28;20051;-81
2021/09/23 10:37:56;;;;;;;422.45;20.30;;;;;;;18.48;46.68;95135.63;5088932;28;20110;-89
2021/09/23 10:40:21;;;;;;;3.72;3.08;;;;;;;18.21;46.60;95129.78;5070828;28;20130;-83
2021/09/23 10:42:50;;;;;;;450.02;19.95;;;;;;;18.11;46.91;95140.75;5083895;28;20424;-86
2021/09/23 10:45:15;;;;;;;3.72;3.53;;;;;;;17.94;47.97;95133.63;5067043;28;20123;-86
2021/09/23 10:47:43;;;;;;;215.80;11.95;;;;;;;18.20;46.44;95126.38;5050310;28;20040;-84
2021/09/23 10:50:09;;;;;;;259.23;15.32;;;;;;;18.06;47.83;95124.06;5051247;28;20024;-83
2021/09/23 10:52:35;;;;;;;7.07;3.85;;;;;;;18.35;47.26;95119.00;5073535;28;20030;-89
2021/09/23 10:55:02;;;;;;;60.75;5.90;;;;;;;17.67;48.67;95119.84;5066346;28;20093;-84
2021/09/23 10:57:28;;;;;;;246.75;13.50;;;;;;;17.34;48.76;95115.56;5083569;28;20378;-84
2021/09/23 10:59:54;;;;;;;53.28;5.63;;;;;;;17.80;48.68;95117.16;5084725;28;20032;-82
2021/09/23 11:02:24;;;;;;;3.67;3.47;;;;;;;17.46;47.33;95118.34;5088882;28;20564;-80
2021/09/23 11:04:53;;;;;;;396.90;19.23;;;;;;;17.43;49.22;95117.94;5089200;28;20111;-77
2021/09/23 11:07:19;;;;;;;4.35;3.78;;;;;;;17.87;48.92;95113.50;5082801;28;20509;-83
2021/09/23 11:10:10;;;;;;;239.25;11.85;;;;;;;17.63;48.98;95111.63;5064924;28;20031;-85
2021/09/23 11:12:36;;;;;;;76.85;6.35;;;;;;;17.89;48.63;95108.84;5082769;28;20119;-76
2021/09/23 11:15:03;;;;;;;290.08;16.40;;;;;;;17.94;48.04;95104.78;5064589;28;20119;-81
2021/09/23 11:17:28;;;;;;;166.20;10.25;;;;;;;18.13;48.98;95111.72;5080007;28;20063;-83
2021/09/23 11:19:58;;;;;;;51.35;5.40;;;;;;;17.97;47.84;95113.03;5052025;28;20055;-81
2021/09/23 11:22:54;;;;;;;78.05;6.75;;;;;;;17.65;47.87;95108.81;5067645;28;20028;-79
2021/09/23 11:25:21;;;;;;;178.55;10.27;;;;;;;17.92;48.34;95109.44;5064031;28;20044;-84
2021/09/23 11:27:47;;;;;;;3.92;3.63;;;;;;;17.87;48.41;95105.63;5060589;28;20059;-82
2021/09/23 11:30:14;;;;;;;14.27;4.10;;;;;;;18.23;46.22;95104.97;5088810;28;20468;-76
2021/09/23 11:33:10;;;;;;;67.55;5.95;;;;;;;17.80;47.95;95107.50;5088562;28;20082;-82
2021/09/23 11:35:37;;;;;;;3.53;3.33;;;;;;;18.00;46.45;95094.25;5087876;28;20050;-83
2021/09/23 11:38:03;;;;;;;12.70;3.03;;;;;;;17.72;47.76;95101.72;5072553;28;20096;-81
2021/09/23 11:40:32;;;;;;;47.13;4.80;;;;;;;18.16;46.85;95106.84;5087620;28;20060;-81
2021/09/23 11:43:00;;;;;;;309.15;14.55;;;;;;;17.32;48.11;95093.22;5072232;28;20032;-80
2021/09/23 11:45:35;;;;;;;386.90;22.17;;;;;;;17.40;47.81;95096.38;5054094;28;20089;-79
2021/09/23 11:48:10;;;;;;;55.67;6.68;;;;;;;17.32;47.80;95070.47;5067068;28;20039;-82
2021/09/23 11:50:36;;;;;;;181.73;11.55;;;;;;;18.00;46.69;95093.44;5038479;28;20027;-83
2021/09/23 11:53:12;;;;;;;284.83;17.15;;;;;;;17.95;47.14;95086.22;5086407;28;20012;-86
2021/09/23 11:55:42;;;;;;;350.17;17.50;;;;;;;18.11;46.76;95087.53;5067492;28;20036;-77
2021/09/23 11:58:14;;;;;;;206.90;12.55;;;;;;;17.94;46.75;95082.00;5050418;28;20119;-80
2021/09/23 12:00:42;;;;;;;387.25;17.63;;;;;;;17.97;45.45;95070.28;5083676;28;20028;-78
2021/09/23 12:03:09;;;;;;;383.70;21.10;;;;;;;17.51;47.65;95083.66;5069198;28;20500;-82
2021/09/23 12:05:34;;;;;;;3.20;3.00;;;;;;;17.94;47.06;95058.41;5084715;28;20121;-84
2021/09/23 12:08:13;;;;;;;95.45;7.13;;;;;;;17.85;46.47;95063.09;5052959;28;20487;-83
2021/09/23 12:11:06;;;;;;;107.22;7.90;;;;;;;17.78;46.89;95069.41;5052669;28;20552;-81
2021/09/23 12:13:43;;;;;;;48.38;4.78;;;;;;;18.11;46.49;95058.69;5085302;28;20032;-83
2021/09/23 12:16:09;;;;;;;20.35;5.38;;;;;;;18.12;45.59;95068.16;5081531;28;20028;-80
2021/09/23 12:18:35;;;;;;;633.90;31.52;;;;;;;17.81;45.75;95067.19;5078870;28;20515;-83
2021/09/23 12:21:20;;;;;;;3.28;2.97;;;;;;;17.60;46.09;95056.22;5053402;28;20024;-80
2021/09/23 12:23:46;;;;;;;35.22;4.20;;;;;;;17.69;46.70;95062.84;5064148;28;20097;-80
2021/09/23 12:26:17;;;;;;;4.20;3.47;;;;;;;17.78;47.62;95069.41;5067200;28;20497;-79
2021/09/23 12:29:03;;;;;;;325.80;17.80;;;;;;;17.72;46.84;95049.31;5066791;28;20051;-87
2021/09/23 12:31:52;;;;;;;142.23;10.15;;;;;;;17.92;46.97;95075.38;5034855;28;20027;-82
2021/09/23 12:34:22;;;;;;;67.97;6.20;;;;;;;17.70;47.05;95067.03;5070423;28;20028;-82
2021/09/23 12:36:49;;;;;;;338.40;16.92;;;;;;;17.24;47.28;95052.34;5050065;28;20078;-77
2021/09/23 12:39:22;;;;;;;89.70;5.68;;;;;;;17.51;48.03;95062.69;5051468;28;20119;-82
2021/09/23 12:41:51;;;;;;;46.20;5.18;;;;;;;17.70;46.87;95062.59;5051126;28;20028;-82
2021/09/23 12:44:17;;;;;;;110.35;6.15;;;;;;;17.78;46.85;95045.84;5075135;28;20020;-75
2021/09/23 12:46:42;;;;;;;3.88;2.60;;;;;;;17.83;46.39;95038.94;5048882;28;20040;-80
2021/09/23 12:49:24;;;;;;;505.70;27.58;;;;;;;17.57;46.74;95046.16;5052668;28;20089;-79
2021/09/23 12:51:49;;;;;;;110.55;7.45;;;;;;;17.51;47.17;95052.22;5082950;28;20016;-77
2021/09/23 12:54:25;;;;;;;171.48;9.35;;;;;;;17.75;45.89;95052.31;5082835;28;20493;-81
2021/09/23 12:57:11;;;;;;;651.00;32.47;;;;;;;17.50;47.08;95042.78;5058855;28;20036;-79
2021/09/23 12:59:36;;;;;;;2.85;2.60;;;;;;;17.94;46.23;95047.13;5047165;28;20028;-82
2021/09/23 13:02:20;;;;;;;100.53;8.25;;;;;;;17.54;46.39;95033.47;5031649;28;20058;-76
2021/09/23 13:05:05;;;;;;;175.40;9.55;;;;;;;17.59;45.67;95050.19;5032865;28;20024;-79
2021/09/23 13:07:34;;;;;;;29.67;4.32;;;;;;;17.85;45.71;95047.38;5071252;28;20055;-84
2021/09/23 13:10:11;;;;;;;35.25;5.45;;;;;;;17.62;46.47;95041.91;5034730;28;20024;-82
2021/09/23 13:13:00;;;;;;;40.75;4.65;;;;;;;17.87;47.04;95036.69;5034398;28;20032;-83
2021/09/23 13:15:27;;;;;;;3.45;3.00;;;;;;;18.00;45.84;95030.53;5077247;28;20102;-81
2021/09/23 13:18:16;;;;;;;866.22;45.22;;;;;;;17.71;45.29;95040.66;5056957;28;20036;-79
2021/09/23 13:20:46;;;;;;;2.80;2.60;;;;;;;17.72;46.35;95050.09;5070150;28;20734;-77
2021/09/23 13:23:22;;;;;;;269.75;13.80;;;;;;;17.48;45.40;95031.69;5052884;28;20027;-80
2021/09/23 13:25:50;;;;;;;2.88;2.47;;;;;;;17.38;45.14;95035.56;5054173;28;20032;-86
2021/09/23 13:28:22;;;;;;;25.98;4.25;;;;;;;17.40;45.32;95036.16;5078406;28;20032;-78
2021/09/23 13:30:48;;;;;;;77.43;5.63;;;;;;;17.42;45.68;95035.97;5053672;28;20036;-87
2021/09/23 13:33:14;;;;;;;248.38;14.05;;;;;;;17.27;45.28;95036.22;5048030;28;20409;-77
2021/09/23 13:35:39;;;;;;;169.38;12.32;;;;;;;17.21;47.03;95041.53;5032549;28;20025;-78
2021/09/23 13:38:05;;;;;;;227.88;9.80;;;;;;;17.50;46.48;95040.94;5064700;28;20405;-79
2021/09/23 13:40:31;;;;;;;8.40;3.17;;;;;;;17.84;46.33;95039.75;5048996;28;20470;-79
2021/09/23 13:42:56;;;;;;;4.75;3.15;;;;;;;17.47;46.00;95030.88;5064628;28;20532;-84
2021/09/23 13:45:27;;;;;;;147.80;8.73;;;;;;;17.45;46.27;95058.31;5064545;28;20040;-83
2021/09/23 13:47:53;;;;;;;134.77;8.75;;;;;;;17.14;46.27;95052.03;5049108;28;20036;-85
2021/09/23 13:50:19;;;;;;;12.32;3.58;;;;;;;17.37;46.29;95056.72;5031486;28;20100;-80
2021/09/23 13:52:45;;;;;;;58.22;5.25;;;;;;;17.31;46.29;95026.94;5049253;28;20048;-82
2021/09/23 13:55:10;;;;;;;633.50;33.88;;;;;;;17.24;46.06;95041.88;5032165;28;20020;-84
2021/09/23 13:57:36;;;;;;;3.25;2.67;;;;;;;17.33;45.90;95040.66;5037677;28;20031;-86
2021/09/23 14:00:01;;;;;;;2.97;2.78;;;;;;;17.34;46.28;95042.25;5050918;28;20036;-85
2021/09/23 14:02:27;;;;;;;241.90;13.32;;;;;;;17.38;47.21;95034.75;5080442;28;20028;-82
2021/09/23 14:04:52;;;;;;;17.42;4.25;;;;;;;17.53;46.04;95030.03;5051774;28;20038;-81
2021/09/23 14:07:18;;;;;;;3.22;3.03;;;;;;;17.37;46.68;95044.44;5072678;28;20043;-82
2021/09/23 14:09:43;;;;;;;65.78;5.88;;;;;;;17.39;46.90;95033.75;5067866;28;20024;-82
2021/09/23 14:12:11;;;;;;;158.20;10.73;;;;;;;16.73;48.13;95034.03;5050073;28;20032;-82
2021/09/23 14:14:36;;;;;;;326.90;14.70;;;;;;;16.46;48.62;95040.34;5067411;28;20058;-86
2021/09/23 14:17:03;;;;;;;101.18;6.15;;;;;;;16.46;49.14;95050.00;5067168;28;20032;-84
2021/09/23 14:19:28;;;;;;;3.67;3.30;;;;;;;16.48;49.29;95046.16;5074331;28;20029;-81
2021/09/23 14:21:54;;;;;;;5.78;3.95;;;;;;;16.37;49.53;95043.38;5042902;28;20424;-84
2021/09/23 14:24:19;;;;;;;33.38;4.43;;;;;;;16.58;48.57;95037.91;5077935;28;20024;-81
2021/09/23 14:26:46;;;;;;;3.95;3.60;;;;;;;16.87;47.91;95047.91;5037257;28;20488;-81
2021/09/23 14:29:13;;;;;;;3.65;3.45;;;;;;;16.89;48.21;95048.47;5061608;28;20401;-80
2021/09/23 14:31:39;;;;;;;3.78;3.47;;;;;;;16.83;48.19;95033.63;5062377;28;20038;-81
2021/09/23 14:34:06;;;;;;;740.83;37.03;;;;;;;17.35;47.08;95051.72;5045627;28;20035;-81
2021/09/23 14:36:32;;;;;;;52.10;5.30;;;;;;;17.34;47.26;95054.53;5065116;28;20088;-78
2021/09/23 14:38:57;;;;;;;72.18;6.55;;;;;;;17.16;47.41;95057.03;5066339;28;20024;-83
2021/09/23 14:41:23;;;;;;;330.13;14.27;;;;;;;16.78;48.15;95057.00;5079871;28;20028;-81
2021/09/23 14:43:49;;;;;;;350.38;17.58;;;;;;;16.79;48.63;95045.53;5062995;28;21477;-80
2021/09/23 14:46:14;;;;;;;281.95;14.52;;;;;;;17.10;47.74;95066.53;5060028;28;20076;-84
2021/09/23 14:48:40;;;;;;;3.92;3.63;;;;;;;17.13;47.42;95066.13;5064573;28;20025;-83
2021/09/23 14:51:05;;;;;;;257.02;14.15;;;;;;;17.07;47.50;95042.59;5059480;28;20115;-80
2021/09/23 14:53:31;;;;;;;3.80;3.42;;;;;;;17.13;46.87;95058.25;5067057;28;20063;-83
2021/09/23 14:55:56;;;;;;;103.07;7.53;;;;;;;17.23;47.74;95058.63;5076740;28;20035;-81
2021/09/23 14:58:22;;;;;;;181.68;10.65;;;;;;;17.21;47.28;95057.22;5057920;28;20493;-89
2021/09/23 15:00:47;;;;;;;4.75;3.60;;;;;;;17.05;47.68;95053.25;5059875;28;20503;-85
2021/09/23 15:03:13;;;;;;;45.92;4.82;;;;;;;16.85;48.31;95058.59;5048916;28;20135;-81
2021/09/23 15:05:38;;;;;;;58.45;5.63;;;;;;;16.67;48.72;95063.66;5050612;28;20024;-84
2021/09/23 15:08:05;;;;;;;3.95;3.65;;;;;;;16.56;49.16;95058.25;5064349;28;20048;-82
2021/09/23 15:10:30;;;;;;;4.38;4.07;;;;;;;16.31;50.90;95061.47;5051274;28;20083;-81
2021/09/23 15:12:56;;;;;;;67.18;8.88;;;;;;;16.14;50.53;95052.47;5056250;28;20497;-87
2021/09/23 15:15:22;;;;;;;64.78;6.95;;;;;;;15.96;50.87;95052.25;5049741;28;20638;-83
2021/09/23 15:17:48;;;;;;;404.75;24.17;;;;;;;15.83;50.17;95047.81;5050495;28;20025;-75
2021/09/23 15:20:14;;;;;;;6.45;3.90;;;;;;;15.77;50.50;95034.75;5066915;28;20089;-83
2021/09/23 15:22:39;;;;;;;6.07;4.05;;;;;;;15.96;50.29;95026.13;5050751;28;20033;-83
2021/09/23 15:25:09;;;;;;;4.18;3.85;;;;;;;16.27;50.18;95065.50;5033691;28;20483;-85
2021/09/23 15:27:35;;;;;;;5.57;4.40;;;;;;;16.06;50.26;95050.03;5065749;28;20132;-84
2021/09/23 15:30:01;;;;;;;4.55;4.25;;;;;;;15.93;50.31;95070.13;5052986;28;20500;-77
2021/09/23 15:32:26;;;;;;;40.78;4.65;;;;;;;15.92;50.86;95066.72;5070111;28;20021;-88
2021/09/23 15:34:52;;;;;;;3.97;3.67;;;;;;;15.81;51.52;95043.81;5054471;28;20055;-88
2021/09/23 15:37:18;;;;;;;53.42;5.43;;;;;;;15.86;51.42;95085.78;5053229;28;20458;-83
2021/09/23 15:39:44;;;;;;;77.22;6.80;;;;;;;15.73;51.79;95081.34;5070687;28;20127;-83
2021/09/23 15:42:09;;;;;;;32.92;5.55;;;;;;;15.68;52.04;95081.16;5068660;28;20016;-82
2021/09/23 15:44:38;;;;;;;260.02;13.95;;;;;;;15.46;52.59;95095.34;5069327;28;20033;-82
2021/09/23 15:47:04;;;;;;;4.85;3.63;;;;;;;15.50;52.39;95088.78;5052924;28;20028;-84
2021/09/23 15:49:30;;;;;;;4.45;4.00;;;;;;;15.25;53.57;95074.63;5035651;28;20063;-86
2021/09/23 15:51:55;;;;;;;22.67;4.72;;;;;;;15.12;54.34;95071.97;5047608;28;20424;-79
2021/09/23 15:54:21;;;;;;;4.18;3.88;;;;;;;15.17;53.91;95072.16;5086923;28;20069;-83
2021/09/23 15:56:46;;;;;;;4.72;4.25;;;;;;;15.06;54.25;95076.13;5065725;28;20032;-79
2021/09/23 15:59:12;;;;;;;4.55;4.07;;;;;;;14.97;55.01;95074.69;5066143;28;20039;-80
2021/09/23 16:01:37;;;;;;;5.40;4.50;;;;;;;14.73;55.74;95070.78;5050127;28;20025;-83
2021/09/23 16:04:03;;;;;;;4.50;4.20;;;;;;;14.66;55.77;95069.13;5043788;28;20036;-83
2021/09/23 16:06:28;;;;;;;4.22;3.92;;;;;;;14.45;56.63;95064.03;5069413;28;20578;-80
2021/09/23 16:08:54;;;;;;;4.88;4.47;;;;;;;14.45;57.24;95087.47;5043566;28;20037;-87
2021/09/23 16:11:20;;;;;;;5.78;4.28;;;;;;;14.26;57.20;95065.44;5054197;28;20028;-80
2021/09/23 16:13:45;;;;;;;5.53;5.05;;;;;;;14.27;57.35;95077.50;5065345;28;20039;-80
2021/09/23 16:16:11;;;;;;;5.30;4.80;;;;;;;14.12;58.33;95087.22;5065980;28;20405;-80
2021/09/23 16:18:36;;;;;;;5.25;4.85;;;;;;;13.79;58.88;95060.09;5049698;28;20089;-80
2021/09/23 16:21:02;;;;;;;4.93;4.50;;;;;;;13.76;58.87;95063.88;5033051;28;20488;-81
2021/09/23 16:23:27;;;;;;;5.78;4.43;;;;;;;13.71;59.59;95085.25;5032234;28;20024;-80
2021/09/23 16:25:54;;;;;;;5.30;4.45;;;;;;;13.47;59.64;95056.19;5032158;28;20033;-82
2021/09/23 16:28:19;;;;;;;4.93;4.43;;;;;;;13.47;59.85;95072.63;5032631;28;20028;-79
2021/09/23 16:30:45;;;;;;;5.38;4.88;;;;;;;13.36;59.88;95060.09;5034472;28;20086;-79
2021/09/23 16:33:10;;;;;;;5.40;4.80;;;;;;;13.33;60.19;95070.03;5052079;28;20107;-81
2021/09/23 16:35:36;;;;;;;5.63;4.38;;;;;;;13.34;59.58;95084.69;5069405;28;20024;-81
2021/09/23 16:38:03;;;;;;;5.38;4.90;;;;;;;13.26;60.18;95080.38;5068893;28;20024;-84
2021/09/23 16:40:28;;;;;;;5.63;5.13;;;;;;;13.10;60.53;95075.41;5086037;28;20024;-79
2021/09/23 16:42:54;;;;;;;7.95;6.90;;;;;;;12.90;60.91;95067.38;5051839;28;20415;-86
2021/09/23 16:45:20;;;;;;;9.38;6.30;;;;;;;12.98;61.14;95082.84;5052660;28;20020;-84
2021/09/23 16:47:45;;;;;;;9.13;6.95;;;;;;;12.83;61.33;95069.06;5051730;28;20478;-81
2021/09/23 16:50:12;;;;;;;8.75;6.90;;;;;;;12.70;61.74;95076.69;5051720;28;20077;-80
2021/09/23 16:52:37;;;;;;;6.85;6.10;;;;;;;12.61;62.04;95081.19;5061045;28;20046;-82
2021/09/23 16:55:03;;;;;;;9.40;7.57;;;;;;;12.43;62.32;95085.91;5047550;28;20493;-80
2021/09/23 16:57:29;;;;;;;7.18;6.47;;;;;;;12.38;62.98;95085.66;5047077;28;20033;-80
2021/09/23 16:59:54;;;;;;;9.30;6.70;;;;;;;12.04;63.39;95057.59;5048524;28;20028;-80
2021/09/23 17:02:20;;;;;;;6.47;5.95;;;;;;;12.25;63.36;95087.25;5048113;28;20040;-81
2021/09/23 17:04:48;;;;;;;6.60;6.00;;;;;;;12.09;63.01;95086.44;5064978;28;20537;-82
2021/09/23 17:07:14;;;;;;;6.78;5.28;;;;;;;12.08;63.30;95100.38;5067933;28;20047;-83
2021/09/23 17:09:40;;;;;;;6.25;4.93;;;;;;;11.93;62.90;95085.75;5057806;28;20028;-80
2021/09/23 17:12:05;;;;;;;6.18;5.68;;;;;;;11.90;63.51;95092.13;5051676;28;20039;-81
2021/09/23 17:14:31;;;;;;;5.22;4.82;;;;;;;11.79;63.37;95079.56;5049203;28;20493;-82
2021/09/23 17:16:57;;;;;;;5.82;5.32;;;;;;;11.82;63.55;95088.75;5031679;28;20025;-81
2021/09/23 17:19:22;;;;;;;7.00;5.30;;;;;;;11.71;63.49;95092.59;5032098;28;20036;-81
2021/09/23 17:21:48;;;;;;;5.93;5.28;;;;;;;11.61;64.16;95095.41;5030458;28;20024;-81
2021/09/23 17:24:13;;;;;;;5.72;5.20;;;;;;;11.59;63.96;95102.53;5031496;28;20028;-82
2021/09/23 17:26:39;;;;;;;6.72;6.13;;;;;;;11.40;64.02;95094.38;5031848;28;20036;-81
2021/09/23 17:29:04;;;;;;;74.65;7.95;;;;;;;11.42;64.78;95098.44;5031105;28;20535;-81
2021/09/23 17:31:30;;;;;;;5.68;5.20;;;;;;;11.48;64.64;95120.28;5047340;28;20024;-81
2021/09/23 17:33:56;;;;;;;5.82;5.32;;;;;;;11.37;65.09;95107.69;5065322;28;20046;-82
2021/09/23 17:36:22;;;;;;;5.20;4.80;;;;;;;11.35;65.14;95112.25;5076460;28;20028;-80
2021/09/23 17:38:48;;;;;;;6.55;5.35;;;;;;;11.37;64.93;95110.28;5072429;28;20100;-81
2021/09/23 17:41:13;;;;;;;5.43;4.93;;;;;;;11.37;65.16;95113.69;5065296;28;20107;-80
2021/09/23 17:43:39;;;;;;;5.43;5.03;;;;;;;11.29;65.39;95113.75;5051185;28;20028;-81
2021/09/23 17:46:05;;;;;;;6.70;6.10;;;;;;;10.57;65.78;95011.28;5068965;28;20035;-81
2021/09/23 17:48:30;;;;;;;7.53;6.93;;;;;;;11.00;65.98;95092.84;5067950;28;20036;-82
2021/09/23 17:50:56;;;;;;;5.93;5.38;;;;;;;11.00;65.99;95093.66;5068484;28;20039;-83
2021/09/23 17:53:21;;;;;;;6.05;5.55;;;;;;;10.90;66.13;95069.75;5041510;28;20773;-81
2021/09/23 17:55:47;;;;;;;7.30;6.03;;;;;;;10.92;66.74;95091.09;5060557;28;20471;-81
2021/09/23 17:58:12;;;;;;;7.65;5.70;;;;;;;10.90;67.04;95092.25;5048284;28;20039;-81
2021/09/23 18:00:38;;;;;;;6.38;5.88;;;;;;;10.83;67.17;95101.66;5044753;28;20433;-80
2021/09/23 18:03:03;;;;;;;5.90;5.40;;;;;;;10.79;67.38;95106.38;5044984;28;20115;-81
2021/09/23 18:05:29;;;;;;;6.50;5.82;;;;;;;10.81;68.33;95120.00;5067007;28;20039;-81
2021/09/23 18:07:54;;;;;;;6.07;5.68;;;;;;;10.50;68.58;95085.44;5050862;28;20048;-81
2021/09/23 18:10:20;;;;;;;6.50;5.93;;;;;;;10.58;68.17;95124.25;5058091;28;20039;-81
2021/09/23 18:12:45;;;;;;;5.90;5.40;;;;;;;10.28;69.09;95081.78;5046832;28;20114;-81
2021/09/23 18:15:11;;;;;;;6.43;5.93;;;;;;;10.62;69.82;95138.50;5048986;28;20036;-81
2021/09/23 18:17:36;;;;;;;5.97;5.47;;;;;;;10.56;69.68;95139.19;5047306;28;20087;-79
2021/09/23 18:20:03;;;;;;;6.25;5.75;;;;;;;10.39;70.10;95122.03;5056235;28;20077;-81
2021/09/23 18:22:28;;;;;;;7.85;5.55;;;;;;;10.40;69.97;95134.03;5052723;28;20170;-78
2021/09/23 18:24:54;;;;;;;8.05;5.55;;;;;;;10.44;69.90;95124.94;5053804;28;20025;-79
2021/09/23 18:27:19;;;;;;;6.85;6.25;;;;;;;10.35;69.18;95113.81;5030397;28;20477;-81
2021/09/23 18:29:45;;;;;;;6.57;5.47;;;;;;;10.51;69.15;95138.84;5070382;28;20039;-80
2021/09/23 18:32:10;;;;;;;5.20;4.70;;;;;;;10.33;69.33;95113.16;5087824;28;20569;-79
2021/09/23 18:34:37;;;;;;;5.30;4.80;;;;;;;10.52;69.25;95154.22;5048643;28;20013;-77
2021/09/23 18:37:03;;;;;;;5.03;4.55;;;;;;;10.54;69.78;95167.00;5051658;28;20097;-80
2021/09/23 18:39:28;;;;;;;5.22;4.78;;;;;;;10.51;69.75;95167.31;5057934;28;20032;-77
2021/09/23 18:41:54;;;;;;;42.78;6.10;;;;;;;10.36;70.03;95156.84;5065293;28;20020;-82
2021/09/23 18:44:19;;;;;;;6.00;4.82;;;;;;;10.27;69.79;95147.47;5047956;28;20056;-81
2021/09/23 18:46:46;;;;;;;7.40;6.63;;;;;;;10.23;70.25;95145.38;5050638;28;20663;-81
2021/09/23 18:49:12;;;;;;;5.15;4.45;;;;;;;10.34;70.25;95163.94;5058820;28;20485;-81
2021/09/23 18:51:37;;;;;;;95.90;9.18;;;;;;;10.32;70.61;95176.25;5075493;28;20028;-78
2021/09/23 18:54:03;;;;;;;4.85;4.45;;;;;;;10.22;70.07;95164.44;5046281;28;20032;-83
2021/09/23 18:56:28;;;;;;;5.30;4.80;;;;;;;10.32;70.10;95185.81;5066320;28;20116;-84
2021/09/23 18:58:54;;;;;;;5.22;4.82;;;;;;;10.29;69.99;95194.72;5042048;28;20028;-83
2021/09/23 19:01:20;;;;;;;4.70;4.30;;;;;;;10.17;70.21;95190.03;5049310;28;20057;-82
2021/09/23 19:03:46;;;;;;;4.95;4.55;;;;;;;10.21;70.12;95199.09;5048270;28;20028;-85
2021/09/23 19:06:11;;;;;;;6.07;4.60;;;;;;;10.08;70.53;95187.38;5077608;28;20074;-80
2021/09/23 19:08:37;;;;;;;5.93;4.28;;;;;;;10.06;70.24;95189.34;5058953;28;20068;-81
2021/09/23 19:11:02;;;;;;;5.93;4.40;;;;;;;10.02;70.94;95192.41;5057593;28;20029;-83
2021/09/23 19:13:28;;;;;;;4.70;4.22;;;;;;;10.04;70.43;95196.47;5042470;28;20032;-82
2021/09/23 19:15:54;;;;;;;51.65;6.22;;;;;;;9.91;70.78;95183.19;5062806;28;20032;-81
2021/09/23 19:18:19;;;;;;;5.20;4.45;;;;;;;9.88;71.34;95199.03;5042755;28;20025;-82
2021/09/23 19:20:45;;;;;;;4.95;4.30;;;;;;;9.74;71.35;95178.97;5065393;28;20197;-80
2021/09/23 19:23:10;;;;;;;6.07;5.53;;;;;;;9.76;71.67;95184.78;5048534;28;20047;-80
2021/09/23 19:25:36;;;;;;;6.05;5.00;;;;;;;9.70;71.54;95192.38;5063147;28;20035;-79
2021/09/23 19:28:02;;;;;;;7.43;5.00;;;;;;;9.47;71.92;95174.88;5058273;28;20080;-81
2021/09/23 19:30:28;;;;;;;228.52;15.63;;;;;;;9.67;71.92;95201.25;5050254;28;20447;-87
2021/09/23 19:32:55;;;;;;;96.50;10.32;;;;;;;9.61;71.58;95191.56;5072498;28;20024;-80
2021/09/23 19:35:24;;;;;;;5.47;5.05;;;;;;;9.60;71.38;95189.13;5051725;28;20068;-80
2021/09/23 19:38:01;;;;;;;5.63;5.17;;;;;;;9.57;71.83;95194.63;5035412;28;20039;-92
2021/09/23 19:40:26;;;;;;;4.90;4.50;;;;;;;9.46;71.42;95167.28;5050977;28;20255;-86
2021/09/23 19:42:52;;;;;;;5.45;4.95;;;;;;;9.44;71.68;95170.03;5033890;28;20106;-84
2021/09/23 19:45:18;;;;;;;6.25;4.65;;;;;;;9.41;71.97;95175.50;5050380;28;20478;-85
2021/09/23 19:47:44;;;;;;;5.65;5.15;;;;;;;9.44;72.34;95189.88;5046344;28;20066;-85
2021/09/23 19:50:11;;;;;;;6.80;4.90;;;;;;;9.36;72.84;95176.97;5053213;28;20023;-84
2021/09/23 19:52:36;;;;;;;5.65;5.25;;;;;;;9.29;72.60;95175.97;5052999;28;20081;-85
2021/09/23 19:55:03;;;;;;;5.80;5.30;;;;;;;9.15;73.36;95158.50;5070460;28;20718;-83
2021/09/23 19:57:28;;;;;;;7.05;6.35;;;;;;;9.06;73.61;95143.91;5086895;28;20048;-80
2021/09/23 19:59:54;;;;;;;7.50;5.93;;;;;;;9.28;73.67;95190.66;5070219;28;20535;-83
2021/09/23 20:02:19;;;;;;;7.03;6.43;;;;;;;9.08;73.92;95165.25;5051887;28;20405;-82
2021/09/23 20:04:45;;;;;;;8.63;7.70;;;;;;;8.88;74.91;95181.00;5053643;28;20027;-81
2021/09/23 20:07:10;;;;;;;8.82;7.78;;;;;;;8.84;75.81;95186.59;5069013;28;20458;-82
2021/09/23 20:09:36;;;;;;;9.80;8.65;;;;;;;8.66;76.08;95168.63;5053345;28;20065;-80
2021/09/23 20:12:01;;;;;;;9.02;7.28;;;;;;;8.38;77.22;95159.44;5069071;28;20035;-81
2021/09/23 20:14:27;;;;;;;7.93;7.13;;;;;;;8.59;77.62;95215.84;5069696;28;20477;-81
2021/09/23 20:16:53;;;;;;;8.30;6.50;;;;;;;8.39;78.40;95223.78;5052241;28;20035;-81
2021/09/23 20:19:18;;;;;;;8.90;7.45;;;;;;;7.36;78.80;95062.91;5049262;28;20021;-84
2021/09/23 20:21:44;;;;;;;7.55;6.75;;;;;;;8.07;79.59;95195.13;5049148;28;20504;-83
2021/09/23 20:24:09;;;;;;;8.15;7.45;;;;;;;8.18;79.42;95220.69;5049406;28;20024;-85
2021/09/23 20:26:35;;;;;;;8.95;8.13;;;;;;;8.13;79.56;95232.41;5032785;28;20039;-83
2021/09/23 20:29:01;;;;;;;9.55;7.35;;;;;;;8.15;79.57;95227.91;5066079;28;20035;-78
2021/09/23 20:31:27;;;;;;;9.68;7.90;;;;;;;8.15;79.82;95225.34;5048542;28;20028;-77
2021/09/23 20:33:53;;;;;;;6.97;6.38;;;;;;;8.30;78.80;95226.44;5074315;28;20039;-80
2021/09/23 20:36:20;;;;;;;8.43;7.63;;;;;;;8.31;78.20;95212.59;5077525;28;20055;-77
2021/09/23 20:38:46;;;;;;;6.68;5.97;;;;;;;8.33;76.88;95205.50;5065789;28;20028;-81
2021/09/23 20:41:12;;;;;;;6.07;5.45;;;;;;;8.43;77.28;95226.88;5066206;28;20028;-79
2021/09/23 20:43:38;;;;;;;8.05;6.35;;;;;;;8.46;77.21;95219.63;5065495;28;20017;-77
2021/09/23 20:46:04;;;;;;;7.07;6.10;;;;;;;8.20;77.91;95187.81;5065131;28;20416;-82
2021/09/23 20:48:29;;;;;;;8.90;7.32;;;;;;;8.13;78.49;95191.13;5031970;28;20032;-80
2021/09/23 20:50:55;;;;;;;9.25;8.35;;;;;;;8.08;79.20;95199.31;5047817;28;20029;-80
2021/09/23 20:53:20;;;;;;;9.35;7.15;;;;;;;7.91;79.23;95177.75;5048552;28;20033;-79
2021/09/23 20:55:49;;;;;;;6.97;6.38;;;;;;;8.04;79.94;95212.66;5049221;28;20032;-79
2021/09/23 20:58:33;;;;;;;6.93;6.43;;;;;;;7.93;79.30;95200.78;5032000;28;20056;-82
2021/09/23 21:01:01;;;;;;;6.97;6.28;;;;;;;8.00;79.29;95219.88;5033883;28;20539;-80
2021/09/23 21:03:27;;;;;;;6.25;5.78;;;;;;;7.80;79.61;95190.84;5064724;28;20021;-82
2021/09/23 21:05:52;;;;;;;8.00;7.20;;;;;;;7.83;79.84;95185.41;5032155;28;20032;-84
2021/09/23 21:08:18;;;;;;;8.05;7.35;;;;;;;7.90;80.74;95209.63;5048317;28;20052;-83
2021/09/23 21:10:44;;;;;;;8.02;7.22;;;;;;;7.49;81.82;95175.91;5064971;28;20029;-84
2021/09/23 21:13:10;;;;;;;8.65;7.88;;;;;;;7.40;82.68;95196.44;5048175;28;20032;-79
2021/09/23 21:15:35;;;;;;;8.07;7.38;;;;;;;6.88;83.98;95145.66;5031110;28;20100;-84
2021/09/23 21:18:01;;;;;;;8.30;7.50;;;;;;;7.21;84.46;95213.78;5031936;28;20500;-83
2021/09/23 21:20:26;;;;;;;7.80;7.03;;;;;;;7.20;84.42;95199.28;5031169;28;20029;-83
2021/09/23 21:22:52;;;;;;;7.72;6.93;;;;;;;7.09;83.71;95179.69;5031645;28;20028;-83
2021/09/23 21:25:17;;;;;;;7.55;6.80;;;;;;;7.18;83.46;95183.16;5047946;28;20056;-82
2021/09/23 21:27:45;;;;;;;6.80;6.20;;;;;;;7.32;83.76;95211.03;5031536;28;20036;-83
2021/09/23 21:30:11;;;;;;;7.85;7.13;;;;;;;7.12;84.99;95210.31;5058987;28;20020;-82
2021/09/23 21:32:37;;;;;;;8.65;7.93;;;;;;;6.94;85.65;95196.56;5047096;28;20032;-80
2021/09/23 21:35:03;;;;;;;9.20;7.75;;;;;;;6.25;85.55;95106.13;5060078;28;20071;-84
2021/09/23 21:37:28;;;;;;;9.32;8.18;;;;;;;6.38;86.22;95141.81;5047241;28;20464;-85